Terminal Aerodrome Forecast
Issued by NWS Upton, NY

Home | Current Version | Previous Version | Text Only | Print | Product List | Glossary On
Versions: 1 2 3 4 5 6 7 8 9 10 11 12 13 14 15 16 17 18 19 20 21 22 23 24 25 26 27
000
FTUS41 KOKX 120830 AAA
TAFJFK
TAF AMD
KJFK 120830Z 1209/1312 17008KT P6SM SCT045 OVC080
     FM121000 17010KT P6SM VCSH SCT025 OVC080
     FM121300 19012G18KT 6SM -RA BKN025 OVC060
     FM121800 23015KT P6SM OVC025
     FM130000 27018G27KT P6SM BKN040
     FM130300 29021G30KT P6SM -SHSN BKN040=

USA.gov is the U.S. government's official web portal to all federal, state and local government web resources and services.